sensor_id;sensor_type;location;lat;lon;timestamp;P1;durP1;ratioP1;P2;durP2;ratioP2
22829;SDS011;11581;51.250;6.778;2023-09-18T00:00:17;6.95;;;3.05;;
22829;SDS011;11581;51.250;6.778;2023-09-18T00:02:46;5.95;;;2.83;;
22829;SDS011;11581;51.250;6.778;2023-09-18T00:05:14;5.60;;;3.00;;
22829;SDS011;11581;51.250;6.778;2023-09-18T00:07:43;7.68;;;2.75;;
22829;SDS011;11581;51.250;6.778;2023-09-18T00:10:10;7.97;;;3.17;;
22829;SDS011;11581;51.250;6.778;2023-09-18T00:12:37;5.75;;;2.83;;
22829;SDS011;11581;51.250;6.778;2023-09-18T00:15:04;6.20;;;2.88;;
22829;SDS011;11581;51.250;6.778;2023-09-18T00:17:33;5.90;;;2.83;;
22829;SDS011;11581;51.250;6.778;2023-09-18T00:20:00;6.90;;;3.10;;
22829;SDS011;11581;51.250;6.778;2023-09-18T00:22:28;5.43;;;3.10;;
22829;SDS011;11581;51.250;6.778;2023-09-18T00:24:56;4.97;;;2.80;;
22829;SDS011;11581;51.250;6.778;2023-09-18T00:27:23;7.68;;;3.08;;
22829;SDS011;11581;51.250;6.778;2023-09-18T00:29:50;5.50;;;2.97;;
22829;SDS011;11581;51.250;6.778;2023-09-18T00:32:17;5.00;;;2.58;;
22829;SDS011;11581;51.250;6.778;2023-09-18T00:34:43;6.38;;;2.50;;
22829;SDS011;11581;51.250;6.778;2023-09-18T00:37:10;5.75;;;2.95;;
22829;SDS011;11581;51.250;6.778;2023-09-18T00:39:37;7.82;;;2.83;;
22829;SDS011;11581;51.250;6.778;2023-09-18T00:42:06;5.78;;;2.47;;
22829;SDS011;11581;51.250;6.778;2023-09-18T00:44:32;6.10;;;2.88;;
22829;SDS011;11581;51.250;6.778;2023-09-18T00:46:59;4.53;;;2.22;;
22829;SDS011;11581;51.250;6.778;2023-09-18T00:49:26;5.88;;;2.78;;
22829;SDS011;11581;51.250;6.778;2023-09-18T00:51:53;5.68;;;3.03;;
22829;SDS011;11581;51.250;6.778;2023-09-18T00:54:20;5.97;;;2.67;;
22829;SDS011;11581;51.250;6.778;2023-09-18T00:56:47;6.85;;;3.13;;
22829;SDS011;11581;51.250;6.778;2023-09-18T00:59:20;4.88;;;2.75;;
22829;SDS011;11581;51.250;6.778;2023-09-18T01:01:48;7.10;;;2.67;;
22829;SDS011;11581;51.250;6.778;2023-09-18T01:04:16;5.35;;;3.10;;
22829;SDS011;11581;51.250;6.778;2023-09-18T01:06:43;10.73;;;3.08;;
22829;SDS011;11581;51.250;6.778;2023-09-18T01:09:10;6.97;;;2.92;;
22829;SDS011;11581;51.250;6.778;2023-09-18T01:11:43;8.57;;;3.55;;
22829;SDS011;11581;51.250;6.778;2023-09-18T01:14:19;6.93;;;3.17;;
22829;SDS011;11581;51.250;6.778;2023-09-18T01:16:53;6.18;;;3.20;;
22829;SDS011;11581;51.250;6.778;2023-09-18T01:19:36;5.15;;;2.50;;
22829;SDS011;11581;51.250;6.778;2023-09-18T01:22:03;6.05;;;2.85;;
22829;SDS011;11581;51.250;6.778;2023-09-18T01:24:33;4.20;;;2.55;;
22829;SDS011;11581;51.250;6.778;2023-09-18T01:27:00;6.70;;;3.03;;
22829;SDS011;11581;51.250;6.778;2023-09-18T01:29:29;4.95;;;2.80;;
22829;SDS011;11581;51.250;6.778;2023-09-18T01:31:57;8.57;;;3.20;;
22829;SDS011;11581;51.250;6.778;2023-09-18T01:34:29;5.35;;;2.80;;
22829;SDS011;11581;51.250;6.778;2023-09-18T01:36:59;5.32;;;2.30;;
22829;SDS011;11581;51.250;6.778;2023-09-18T01:39:28;5.88;;;2.53;;
22829;SDS011;11581;51.250;6.778;2023-09-18T01:41:58;7.95;;;3.00;;
22829;SDS011;11581;51.250;6.778;2023-09-18T01:44:26;7.35;;;3.30;;
22829;SDS011;11581;51.250;6.778;2023-09-18T01:46:53;3.97;;;2.10;;
22829;SDS011;11581;51.250;6.778;2023-09-18T01:49:27;7.00;;;3.10;;
22829;SDS011;11581;51.250;6.778;2023-09-18T01:51:55;4.15;;;2.45;;
22829;SDS011;11581;51.250;6.778;2023-09-18T01:54:21;7.72;;;2.88;;
22829;SDS011;11581;51.250;6.778;2023-09-18T01:56:49;7.35;;;3.10;;
22829;SDS011;11581;51.250;6.778;2023-09-18T01:59:18;6.40;;;2.97;;
22829;SDS011;11581;51.250;6.778;2023-09-18T02:01:47;5.93;;;2.83;;
22829;SDS011;11581;51.250;6.778;2023-09-18T02:04:14;8.00;;;2.60;;
22829;SDS011;11581;51.250;6.778;2023-09-18T02:06:42;7.53;;;3.15;;
22829;SDS011;11581;51.250;6.778;2023-09-18T02:09:10;6.18;;;2.80;;
22829;SDS011;11581;51.250;6.778;2023-09-18T02:11:37;8.00;;;3.53;;
22829;SDS011;11581;51.250;6.778;2023-09-18T02:14:05;6.30;;;2.75;;
22829;SDS011;11581;51.250;6.778;2023-09-18T02:16:34;5.43;;;3.28;;
22829;SDS011;11581;51.250;6.778;2023-09-18T02:19:03;9.88;;;3.17;;
22829;SDS011;11581;51.250;6.778;2023-09-18T02:21:30;6.80;;;3.20;;
22829;SDS011;11581;51.250;6.778;2023-09-18T02:23:58;4.43;;;2.97;;
22829;SDS011;11581;51.250;6.778;2023-09-18T02:26:25;4.53;;;2.75;;
22829;SDS011;11581;51.250;6.778;2023-09-18T02:28:52;4.60;;;3.00;;
22829;SDS011;11581;51.250;6.778;2023-09-18T02:31:19;6.55;;;2.78;;
22829;SDS011;11581;51.250;6.778;2023-09-18T02:33:48;6.63;;;3.08;;
22829;SDS011;11581;51.250;6.778;2023-09-18T02:36:15;6.13;;;2.80;;
22829;SDS011;11581;51.250;6.778;2023-09-18T02:38:42;6.38;;;2.70;;
22829;SDS011;11581;51.250;6.778;2023-09-18T02:41:09;5.15;;;2.92;;
22829;SDS011;11581;51.250;6.778;2023-09-18T02:43:36;8.48;;;2.88;;
22829;SDS011;11581;51.250;6.778;2023-09-18T02:46:03;8.88;;;2.85;;
22829;SDS011;11581;51.250;6.778;2023-09-18T02:48:31;5.30;;;2.55;;
22829;SDS011;11581;51.250;6.778;2023-09-18T02:50:59;7.97;;;3.15;;
22829;SDS011;11581;51.250;6.778;2023-09-18T02:53:27;6.95;;;3.03;;
22829;SDS011;11581;51.250;6.778;2023-09-18T02:55:58;5.82;;;2.90;;
22829;SDS011;11581;51.250;6.778;2023-09-18T02:58:25;6.40;;;3.20;;
22829;SDS011;11581;51.250;6.778;2023-09-18T03:00:55;6.68;;;2.90;;
22829;SDS011;11581;51.250;6.778;2023-09-18T03:03:22;5.30;;;2.75;;
22829;SDS011;11581;51.250;6.778;2023-09-18T03:05:50;6.85;;;2.63;;
22829;SDS011;11581;51.250;6.778;2023-09-18T03:08:18;6.45;;;2.72;;
22829;SDS011;11581;51.250;6.778;2023-09-18T03:10:45;6.13;;;2.60;;
22829;SDS011;11581;51.250;6.778;2023-09-18T03:13:13;5.65;;;2.67;;
22829;SDS011;11581;51.250;6.778;2023-09-18T03:15:44;5.75;;;2.70;;
22829;SDS011;11581;51.250;6.778;2023-09-18T03:18:12;5.82;;;3.00;;
22829;SDS011;11581;51.250;6.778;2023-09-18T03:20:41;6.75;;;3.05;;
22829;SDS011;11581;51.250;6.778;2023-09-18T03:23:08;5.75;;;3.00;;
22829;SDS011;11581;51.250;6.778;2023-09-18T03:25:36;7.18;;;2.90;;
22829;SDS011;11581;51.250;6.778;2023-09-18T03:28:03;6.05;;;2.67;;
22829;SDS011;11581;51.250;6.778;2023-09-18T03:30:32;8.02;;;3.30;;
22829;SDS011;11581;51.250;6.778;2023-09-18T03:33:00;9.77;;;2.80;;
22829;SDS011;11581;51.250;6.778;2023-09-18T03:35:28;5.68;;;2.70;;
22829;SDS011;11581;51.250;6.778;2023-09-18T03:37:55;7.47;;;2.97;;
22829;SDS011;11581;51.250;6.778;2023-09-18T03:40:22;10.65;;;2.97;;
22829;SDS011;11581;51.250;6.778;2023-09-18T03:42:50;9.60;;;3.13;;
22829;SDS011;11581;51.250;6.778;2023-09-18T03:45:17;7.32;;;2.70;;
22829;SDS011;11581;51.250;6.778;2023-09-18T03:47:47;7.28;;;3.17;;
22829;SDS011;11581;51.250;6.778;2023-09-18T03:50:15;4.82;;;2.58;;
22829;SDS011;11581;51.250;6.778;2023-09-18T03:52:42;6.78;;;3.33;;
22829;SDS011;11581;51.250;6.778;2023-09-18T03:55:09;6.22;;;3.10;;
22829;SDS011;11581;51.250;6.778;2023-09-18T03:57:36;7.53;;;2.63;;
22829;SDS011;11581;51.250;6.778;2023-09-18T04:00:04;11.02;;;3.53;;
22829;SDS011;11581;51.250;6.778;2023-09-18T04:02:40;6.63;;;3.05;;
22829;SDS011;11581;51.250;6.778;2023-09-18T04:05:06;11.48;;;2.92;;
22829;SDS011;11581;51.250;6.778;2023-09-18T04:07:34;6.65;;;2.78;;
22829;SDS011;11581;51.250;6.778;2023-09-18T04:10:01;5.85;;;2.85;;
22829;SDS011;11581;51.250;6.778;2023-09-18T04:12:28;8.50;;;2.75;;
22829;SDS011;11581;51.250;6.778;2023-09-18T04:14:55;7.65;;;2.80;;
22829;SDS011;11581;51.250;6.778;2023-09-18T04:17:24;7.28;;;2.80;;
22829;SDS011;11581;51.250;6.778;2023-09-18T04:19:51;5.32;;;2.72;;
22829;SDS011;11581;51.250;6.778;2023-09-18T04:22:20;7.22;;;2.72;;
22829;SDS011;11581;51.250;6.778;2023-09-18T04:24:46;6.90;;;2.17;;
22829;SDS011;11581;51.250;6.778;2023-09-18T04:27:14;6.00;;;2.85;;
22829;SDS011;11581;51.250;6.778;2023-09-18T04:29:40;5.00;;;2.70;;
22829;SDS011;11581;51.250;6.778;2023-09-18T04:32:07;6.57;;;2.75;;
22829;SDS011;11581;51.250;6.778;2023-09-18T04:34:35;6.95;;;2.75;;
22829;SDS011;11581;51.250;6.778;2023-09-18T04:37:03;9.32;;;2.45;;
22829;SDS011;11581;51.250;6.778;2023-09-18T04:39:29;14.80;;;2.65;;
22829;SDS011;11581;51.250;6.778;2023-09-18T04:42:00;7.40;;;3.17;;
22829;SDS011;11581;51.250;6.778;2023-09-18T04:44:30;6.95;;;2.55;;
22829;SDS011;11581;51.250;6.778;2023-09-18T04:46:57;5.95;;;2.40;;
22829;SDS011;11581;51.250;6.778;2023-09-18T04:49:25;4.68;;;2.08;;
22829;SDS011;11581;51.250;6.778;2023-09-18T04:51:54;7.13;;;2.67;;
22829;SDS011;11581;51.250;6.778;2023-09-18T04:54:22;8.55;;;2.20;;
22829;SDS011;11581;51.250;6.778;2023-09-18T04:56:49;8.90;;;2.53;;
22829;SDS011;11581;51.250;6.778;2023-09-18T04:59:15;5.70;;;2.60;;
22829;SDS011;11581;51.250;6.778;2023-09-18T05:01:42;5.55;;;2.78;;
22829;SDS011;11581;51.250;6.778;2023-09-18T05:04:09;6.50;;;2.42;;
22829;SDS011;11581;51.250;6.778;2023-09-18T05:06:36;6.07;;;2.30;;
22829;SDS011;11581;51.250;6.778;2023-09-18T05:09:08;6.05;;;2.53;;
22829;SDS011;11581;51.250;6.778;2023-09-18T05:11:35;7.80;;;2.95;;
22829;SDS011;11581;51.250;6.778;2023-09-18T05:14:01;7.10;;;2.35;;
22829;SDS011;11581;51.250;6.778;2023-09-18T05:16:28;11.85;;;2.80;;
22829;SDS011;11581;51.250;6.778;2023-09-18T05:18:55;5.88;;;2.38;;
22829;SDS011;11581;51.250;6.778;2023-09-18T05:21:22;8.90;;;2.63;;
22829;SDS011;11581;51.250;6.778;2023-09-18T05:23:50;5.30;;;2.50;;
22829;SDS011;11581;51.250;6.778;2023-09-18T05:26:20;5.60;;;2.65;;
22829;SDS011;11581;51.250;6.778;2023-09-18T05:28:49;8.68;;;2.50;;
22829;SDS011;11581;51.250;6.778;2023-09-18T05:31:16;9.57;;;2.78;;
22829;SDS011;11581;51.250;6.778;2023-09-18T05:33:43;6.85;;;2.33;;
22829;SDS011;11581;51.250;6.778;2023-09-18T05:36:10;7.30;;;2.60;;
22829;SDS011;11581;51.250;6.778;2023-09-18T05:38:36;7.90;;;3.03;;
22829;SDS011;11581;51.250;6.778;2023-09-18T05:41:03;5.78;;;2.47;;
22829;SDS011;11581;51.250;6.778;2023-09-18T05:43:32;4.57;;;2.13;;
22829;SDS011;11581;51.250;6.778;2023-09-18T05:46:00;5.85;;;2.15;;
22829;SDS011;11581;51.250;6.778;2023-09-18T05:48:27;5.47;;;2.00;;
22829;SDS011;11581;51.250;6.778;2023-09-18T05:50:54;7.65;;;2.30;;
22829;SDS011;11581;51.250;6.778;2023-09-18T05:53:21;8.80;;;2.40;;
22829;SDS011;11581;51.250;6.778;2023-09-18T05:55:48;8.18;;;2.35;;
22829;SDS011;11581;51.250;6.778;2023-09-18T05:58:15;5.25;;;2.38;;
22829;SDS011;11581;51.250;6.778;2023-09-18T06:00:44;10.00;;;2.63;;
22829;SDS011;11581;51.250;6.778;2023-09-18T06:03:11;4.13;;;1.70;;
22829;SDS011;11581;51.250;6.778;2023-09-18T06:05:40;5.93;;;1.83;;
22829;SDS011;11581;51.250;6.778;2023-09-18T06:08:06;4.60;;;1.60;;
22829;SDS011;11581;51.250;6.778;2023-09-18T06:10:33;3.85;;;1.67;;
22829;SDS011;11581;51.250;6.778;2023-09-18T06:13:00;6.65;;;1.98;;
22829;SDS011;11581;51.250;6.778;2023-09-18T06:15:29;9.55;;;2.20;;
22829;SDS011;11581;51.250;6.778;2023-09-18T06:17:57;6.88;;;2.33;;
22829;SDS011;11581;51.250;6.778;2023-09-18T06:20:24;6.60;;;1.83;;
22829;SDS011;11581;51.250;6.778;2023-09-18T06:22:51;5.78;;;2.42;;
22829;SDS011;11581;51.250;6.778;2023-09-18T06:25:18;3.63;;;1.85;;
22829;SDS011;11581;51.250;6.778;2023-09-18T06:27:45;6.00;;;2.30;;
22829;SDS011;11581;51.250;6.778;2023-09-18T06:30:12;6.97;;;2.03;;
22829;SDS011;11581;51.250;6.778;2023-09-18T06:32:39;12.18;;;2.40;;
22829;SDS011;11581;51.250;6.778;2023-09-18T06:35:08;4.32;;;1.73;;
22829;SDS011;11581;51.250;6.778;2023-09-18T06:37:34;4.00;;;1.50;;
22829;SDS011;11581;51.250;6.778;2023-09-18T06:40:01;3.80;;;1.60;;
22829;SDS011;11581;51.250;6.778;2023-09-18T06:42:30;6.10;;;1.42;;
22829;SDS011;11581;51.250;6.778;2023-09-18T06:44:57;5.60;;;1.52;;
22829;SDS011;11581;51.250;6.778;2023-09-18T06:47:24;2.70;;;1.40;;
22829;SDS011;11581;51.250;6.778;2023-09-18T06:49:51;3.78;;;1.38;;
22829;SDS011;11581;51.250;6.778;2023-09-18T06:52:19;7.78;;;1.85;;
22829;SDS011;11581;51.250;6.778;2023-09-18T06:54:46;2.92;;;1.17;;
22829;SDS011;11581;51.250;6.778;2023-09-18T06:57:13;8.80;;;1.50;;
22829;SDS011;11581;51.250;6.778;2023-09-18T06:59:39;3.65;;;1.27;;
22829;SDS011;11581;51.250;6.778;2023-09-18T07:02:06;5.25;;;1.50;;
22829;SDS011;11581;51.250;6.778;2023-09-18T07:04:33;5.32;;;1.40;;
22829;SDS011;11581;51.250;6.778;2023-09-18T07:07:02;7.38;;;1.70;;
22829;SDS011;11581;51.250;6.778;2023-09-18T07:09:30;4.38;;;1.48;;
22829;SDS011;11581;51.250;6.778;2023-09-18T07:11:59;3.15;;;1.20;;
22829;SDS011;11581;51.250;6.778;2023-09-18T07:14:25;4.10;;;1.40;;
22829;SDS011;11581;51.250;6.778;2023-09-18T07:16:52;7.35;;;1.55;;
22829;SDS011;11581;51.250;6.778;2023-09-18T07:19:19;4.18;;;1.30;;
22829;SDS011;11581;51.250;6.778;2023-09-18T07:21:46;8.15;;;2.05;;
22829;SDS011;11581;51.250;6.778;2023-09-18T07:24:13;5.13;;;1.50;;
22829;SDS011;11581;51.250;6.778;2023-09-18T07:26:44;3.60;;;1.50;;
22829;SDS011;11581;51.250;6.778;2023-09-18T07:29:12;4.28;;;1.30;;
22829;SDS011;11581;51.250;6.778;2023-09-18T07:31:40;5.93;;;1.38;;
22829;SDS011;11581;51.250;6.778;2023-09-18T07:34:07;4.05;;;1.25;;
22829;SDS011;11581;51.250;6.778;2023-09-18T07:36:34;4.20;;;1.20;;
22829;SDS011;11581;51.250;6.778;2023-09-18T07:39:01;5.20;;;1.85;;
22829;SDS011;11581;51.250;6.778;2023-09-18T07:41:27;4.40;;;1.33;;
22829;SDS011;11581;51.250;6.778;2023-09-18T07:43:56;4.45;;;1.27;;
22829;SDS011;11581;51.250;6.778;2023-09-18T07:46:23;6.10;;;1.50;;
22829;SDS011;11581;51.250;6.778;2023-09-18T07:48:50;2.15;;;1.10;;
22829;SDS011;11581;51.250;6.778;2023-09-18T07:51:17;3.00;;;1.17;;
22829;SDS011;11581;51.250;6.778;2023-09-18T07:53:44;3.83;;;1.00;;
22829;SDS011;11581;51.250;6.778;2023-09-18T07:56:11;5.22;;;0.95;;
22829;SDS011;11581;51.250;6.778;2023-09-18T07:58:38;3.20;;;1.13;;
22829;SDS011;11581;51.250;6.778;2023-09-18T08:01:07;2.67;;;1.15;;
22829;SDS011;11581;51.250;6.778;2023-09-18T08:03:34;5.18;;;1.25;;
22829;SDS011;11581;51.250;6.778;2023-09-18T08:06:01;2.35;;;0.88;;
22829;SDS011;11581;51.250;6.778;2023-09-18T08:08:29;3.00;;;0.85;;
22829;SDS011;11581;51.250;6.778;2023-09-18T08:10:58;2.50;;;0.70;;
22829;SDS011;11581;51.250;6.778;2023-09-18T08:13:27;3.50;;;1.10;;
22829;SDS011;11581;51.250;6.778;2023-09-18T08:15:54;3.25;;;0.80;;
22829;SDS011;11581;51.250;6.778;2023-09-18T08:18:23;2.33;;;0.95;;
22829;SDS011;11581;51.250;6.778;2023-09-18T08:20:52;4.97;;;1.00;;
22829;SDS011;11581;51.250;6.778;2023-09-18T08:23:19;2.15;;;0.80;;
22829;SDS011;11581;51.250;6.778;2023-09-18T08:25:46;1.60;;;0.70;;
22829;SDS011;11581;51.250;6.778;2023-09-18T08:28:13;2.95;;;1.10;;
22829;SDS011;11581;51.250;6.778;2023-09-18T08:30:41;1.48;;;0.70;;
22829;SDS011;11581;51.250;6.778;2023-09-18T08:33:12;1.83;;;0.70;;
22829;SDS011;11581;51.250;6.778;2023-09-18T08:35:40;3.35;;;0.70;;
22829;SDS011;11581;51.250;6.778;2023-09-18T08:38:07;2.08;;;0.55;;
22829;SDS011;11581;51.250;6.778;2023-09-18T08:40:34;2.47;;;0.80;;
22829;SDS011;11581;51.250;6.778;2023-09-18T08:43:02;5.00;;;0.90;;
22829;SDS011;11581;51.250;6.778;2023-09-18T08:45:31;2.03;;;0.73;;
22829;SDS011;11581;51.250;6.778;2023-09-18T08:48:05;1.52;;;0.60;;
22829;SDS011;11581;51.250;6.778;2023-09-18T08:50:33;2.42;;;0.80;;
22829;SDS011;11581;51.250;6.778;2023-09-18T08:53:02;3.67;;;1.10;;
22829;SDS011;11581;51.250;6.778;2023-09-18T08:55:29;3.58;;;0.70;;
22829;SDS011;11581;51.250;6.778;2023-09-18T08:57:58;1.17;;;0.50;;
22829;SDS011;11581;51.250;6.778;2023-09-18T09:00:25;3.58;;;1.10;;
22829;SDS011;11581;51.250;6.778;2023-09-18T09:02:52;3.10;;;1.05;;
22829;SDS011;11581;51.250;6.778;2023-09-18T09:05:19;2.83;;;0.85;;
22829;SDS011;11581;51.250;6.778;2023-09-18T09:07:47;2.15;;;0.80;;
22829;SDS011;11581;51.250;6.778;2023-09-18T09:10:16;5.85;;;0.80;;
22829;SDS011;11581;51.250;6.778;2023-09-18T09:12:47;6.38;;;1.00;;
22829;SDS011;11581;51.250;6.778;2023-09-18T09:15:20;3.00;;;0.88;;
22829;SDS011;11581;51.250;6.778;2023-09-18T09:17:47;2.97;;;0.70;;
22829;SDS011;11581;51.250;6.778;2023-09-18T09:20:15;3.25;;;0.80;;
22829;SDS011;11581;51.250;6.778;2023-09-18T09:22:44;3.55;;;0.90;;
22829;SDS011;11581;51.250;6.778;2023-09-18T09:25:27;2.50;;;0.80;;
22829;SDS011;11581;51.250;6.778;2023-09-18T09:27:57;2.00;;;0.65;;
22829;SDS011;11581;51.250;6.778;2023-09-18T09:30:25;3.38;;;0.88;;
22829;SDS011;11581;51.250;6.778;2023-09-18T09:32:53;1.83;;;0.85;;
22829;SDS011;11581;51.250;6.778;2023-09-18T09:35:22;2.95;;;1.10;;
22829;SDS011;11581;51.250;6.778;2023-09-18T09:37:52;3.15;;;1.10;;
22829;SDS011;11581;51.250;6.778;2023-09-18T09:40:21;2.90;;;0.70;;
22829;SDS011;11581;51.250;6.778;2023-09-18T09:42:52;3.55;;;1.00;;
22829;SDS011;11581;51.250;6.778;2023-09-18T09:45:25;5.72;;;0.68;;
22829;SDS011;11581;51.250;6.778;2023-09-18T09:47:54;2.78;;;1.08;;
22829;SDS011;11581;51.250;6.778;2023-09-18T09:50:21;3.20;;;1.50;;
22829;SDS011;11581;51.250;6.778;2023-09-18T09:52:51;1.67;;;0.60;;
22829;SDS011;11581;51.250;6.778;2023-09-18T09:55:23;3.08;;;0.55;;
22829;SDS011;11581;51.250;6.778;2023-09-18T09:57:55;3.25;;;0.98;;
22829;SDS011;11581;51.250;6.778;2023-09-18T10:00:29;1.08;;;0.60;;
22829;SDS011;11581;51.250;6.778;2023-09-18T10:03:02;1.45;;;0.70;;
22829;SDS011;11581;51.250;6.778;2023-09-18T10:05:31;2.92;;;0.93;;
22829;SDS011;11581;51.250;6.778;2023-09-18T10:08:02;3.45;;;0.70;;
22829;SDS011;11581;51.250;6.778;2023-09-18T10:10:34;0.88;;;0.50;;
22829;SDS011;11581;51.250;6.778;2023-09-18T10:13:15;1.58;;;0.50;;
22829;SDS011;11581;51.250;6.778;2023-09-18T10:15:44;2.55;;;0.60;;
22829;SDS011;11581;51.250;6.778;2023-09-18T10:18:24;2.28;;;0.80;;
22829;SDS011;11581;51.250;6.778;2023-09-18T10:20:56;3.22;;;0.90;;
22829;SDS011;11581;51.250;6.778;2023-09-18T10:23:34;4.03;;;1.10;;
22829;SDS011;11581;51.250;6.778;2023-09-18T10:26:12;4.95;;;1.10;;
22829;SDS011;11581;51.250;6.778;2023-09-18T10:28:48;1.55;;;0.70;;
22829;SDS011;11581;51.250;6.778;2023-09-18T10:31:18;2.15;;;0.60;;
22829;SDS011;11581;51.250;6.778;2023-09-18T10:33:46;2.28;;;0.77;;
22829;SDS011;11581;51.250;6.778;2023-09-18T10:36:15;4.03;;;1.13;;
22829;SDS011;11581;51.250;6.778;2023-09-18T10:38:44;4.85;;;0.88;;
22829;SDS011;11581;51.250;6.778;2023-09-18T10:41:15;1.90;;;1.02;;
22829;SDS011;11581;51.250;6.778;2023-09-18T10:43:44;1.40;;;0.70;;
22829;SDS011;11581;51.250;6.778;2023-09-18T10:46:13;3.47;;;0.90;;
22829;SDS011;11581;51.250;6.778;2023-09-18T10:48:40;1.30;;;0.70;;
22829;SDS011;11581;51.250;6.778;2023-09-18T10:51:08;2.35;;;0.80;;
22829;SDS011;11581;51.250;6.778;2023-09-18T10:53:36;3.38;;;0.98;;
22829;SDS011;11581;51.250;6.778;2023-09-18T10:56:03;3.03;;;0.90;;
22829;SDS011;11581;51.250;6.778;2023-09-18T10:58:30;1.80;;;0.75;;
22829;SDS011;11581;51.250;6.778;2023-09-18T11:01:00;2.53;;;0.75;;
22829;SDS011;11581;51.250;6.778;2023-09-18T11:03:29;3.95;;;0.70;;
22829;SDS011;11581;51.250;6.778;2023-09-18T11:06:03;3.17;;;0.95;;
22829;SDS011;11581;51.250;6.778;2023-09-18T11:08:32;2.70;;;0.88;;
22829;SDS011;11581;51.250;6.778;2023-09-18T11:11:01;3.97;;;0.90;;
22829;SDS011;11581;51.250;6.778;2023-09-18T11:13:38;1.95;;;0.90;;
22829;SDS011;11581;51.250;6.778;2023-09-18T11:16:13;5.00;;;0.80;;
22829;SDS011;11581;51.250;6.778;2023-09-18T11:18:44;1.23;;;0.70;;
22829;SDS011;11581;51.250;6.778;2023-09-18T11:21:14;1.90;;;0.90;;
22829;SDS011;11581;51.250;6.778;2023-09-18T11:23:43;2.65;;;0.63;;
22829;SDS011;11581;51.250;6.778;2023-09-18T11:26:10;2.20;;;0.75;;
22829;SDS011;11581;51.250;6.778;2023-09-18T11:28:37;3.38;;;0.98;;
22829;SDS011;11581;51.250;6.778;2023-09-18T11:31:05;2.75;;;0.80;;
22829;SDS011;11581;51.250;6.778;2023-09-18T11:33:33;8.38;;;1.00;;
22829;SDS011;11581;51.250;6.778;2023-09-18T11:36:13;4.32;;;0.95;;
22829;SDS011;11581;51.250;6.778;2023-09-18T11:38:56;2.42;;;0.57;;
22829;SDS011;11581;51.250;6.778;2023-09-18T11:41:27;1.00;;;0.50;;
22829;SDS011;11581;51.250;6.778;2023-09-18T11:46:55;4.25;;;0.95;;
22829;SDS011;11581;51.250;6.778;2023-09-18T11:49:23;3.33;;;0.93;;
22829;SDS011;11581;51.250;6.778;2023-09-18T11:51:53;3.90;;;0.95;;
22829;SDS011;11581;51.250;6.778;2023-09-18T11:54:21;2.10;;;0.90;;
22829;SDS011;11581;51.250;6.778;2023-09-18T11:56:48;3.70;;;1.13;;
22829;SDS011;11581;51.250;6.778;2023-09-18T11:59:16;4.63;;;1.08;;
22829;SDS011;11581;51.250;6.778;2023-09-18T12:01:52;1.67;;;0.90;;
22829;SDS011;11581;51.250;6.778;2023-09-18T12:04:26;2.97;;;0.80;;
22829;SDS011;11581;51.250;6.778;2023-09-18T12:06:56;10.27;;;1.95;;
22829;SDS011;11581;51.250;6.778;2023-09-18T12:09:26;2.30;;;0.80;;
22829;SDS011;11581;51.250;6.778;2023-09-18T12:11:53;9.18;;;0.93;;
22829;SDS011;11581;51.250;6.778;2023-09-18T12:14:20;2.15;;;0.77;;
22829;SDS011;11581;51.250;6.778;2023-09-18T12:16:47;2.85;;;0.95;;
22829;SDS011;11581;51.250;6.778;2023-09-18T12:19:16;1.92;;;0.90;;
22829;SDS011;11581;51.250;6.778;2023-09-18T12:21:45;2.08;;;0.95;;
22829;SDS011;11581;51.250;6.778;2023-09-18T12:24:17;2.58;;;0.82;;
22829;SDS011;11581;51.250;6.778;2023-09-18T12:26:47;2.95;;;1.17;;
22829;SDS011;11581;51.250;6.778;2023-09-18T12:29:14;3.78;;;0.80;;
22829;SDS011;11581;51.250;6.778;2023-09-18T12:31:43;5.57;;;1.23;;
22829;SDS011;11581;51.250;6.778;2023-09-18T12:34:13;3.92;;;1.00;;
22829;SDS011;11581;51.250;6.778;2023-09-18T12:36:41;2.00;;;0.68;;
22829;SDS011;11581;51.250;6.778;2023-09-18T12:39:09;2.33;;;1.10;;
22829;SDS011;11581;51.250;6.778;2023-09-18T12:41:38;2.60;;;0.88;;
22829;SDS011;11581;51.250;6.778;2023-09-18T12:44:05;3.40;;;1.17;;
22829;SDS011;11581;51.250;6.778;2023-09-18T12:46:33;3.45;;;0.90;;
22829;SDS011;11581;51.250;6.778;2023-09-18T12:49:14;1.52;;;0.55;;
22829;SDS011;11581;51.250;6.778;2023-09-18T12:51:42;4.28;;;1.10;;
22829;SDS011;11581;51.250;6.778;2023-09-18T12:54:09;1.42;;;0.77;;
22829;SDS011;11581;51.250;6.778;2023-09-18T12:56:43;2.33;;;0.65;;
22829;SDS011;11581;51.250;6.778;2023-09-18T12:59:09;5.07;;;0.95;;
22829;SDS011;11581;51.250;6.778;2023-09-18T13:01:38;2.28;;;0.70;;
22829;SDS011;11581;51.250;6.778;2023-09-18T13:04:07;2.03;;;0.95;;
22829;SDS011;11581;51.250;6.778;2023-09-18T13:06:38;3.70;;;0.95;;
22829;SDS011;11581;51.250;6.778;2023-09-18T13:09:17;5.18;;;0.95;;
22829;SDS011;11581;51.250;6.778;2023-09-18T13:11:54;1.92;;;0.68;;
22829;SDS011;11581;51.250;6.778;2023-09-18T13:14:21;5.40;;;0.85;;
22829;SDS011;11581;51.250;6.778;2023-09-18T13:16:48;2.50;;;0.60;;
22829;SDS011;11581;51.250;6.778;2023-09-18T13:19:16;4.65;;;1.00;;
22829;SDS011;11581;51.250;6.778;2023-09-18T13:21:47;1.65;;;0.85;;
22829;SDS011;11581;51.250;6.778;2023-09-18T13:24:27;1.60;;;0.80;;
22829;SDS011;11581;51.250;6.778;2023-09-18T13:26:56;1.15;;;0.70;;
22829;SDS011;11581;51.250;6.778;2023-09-18T13:29:24;1.83;;;0.90;;
22829;SDS011;11581;51.250;6.778;2023-09-18T13:31:51;2.10;;;0.90;;
22829;SDS011;11581;51.250;6.778;2023-09-18T13:34:18;3.55;;;0.85;;
22829;SDS011;11581;51.250;6.778;2023-09-18T13:36:46;2.72;;;1.00;;
22829;SDS011;11581;51.250;6.778;2023-09-18T13:39:13;3.72;;;1.33;;
22829;SDS011;11581;51.250;6.778;2023-09-18T13:41:42;1.98;;;0.80;;
22829;SDS011;11581;51.250;6.778;2023-09-18T13:44:11;1.48;;;0.80;;
22829;SDS011;11581;51.250;6.778;2023-09-18T13:46:39;2.28;;;0.80;;
22829;SDS011;11581;51.250;6.778;2023-09-18T13:49:07;2.17;;;0.90;;
22829;SDS011;11581;51.250;6.778;2023-09-18T13:51:34;2.20;;;1.02;;
22829;SDS011;11581;51.250;6.778;2023-09-18T13:54:01;1.85;;;0.80;;
22829;SDS011;11581;51.250;6.778;2023-09-18T13:56:29;2.63;;;0.70;;
22829;SDS011;11581;51.250;6.778;2023-09-18T13:58:56;3.22;;;0.95;;
22829;SDS011;11581;51.250;6.778;2023-09-18T14:01:24;2.60;;;0.68;;
22829;SDS011;11581;51.250;6.778;2023-09-18T14:03:52;2.95;;;0.77;;
22829;SDS011;11581;51.250;6.778;2023-09-18T14:06:19;1.90;;;0.70;;
22829;SDS011;11581;51.250;6.778;2023-09-18T14:08:45;1.10;;;0.63;;
22829;SDS011;11581;51.250;6.778;2023-09-18T14:11:12;4.53;;;1.20;;
22829;SDS011;11581;51.250;6.778;2023-09-18T14:13:39;2.78;;;1.10;;
22829;SDS011;11581;51.250;6.778;2023-09-18T14:16:06;1.10;;;0.60;;
22829;SDS011;11581;51.250;6.778;2023-09-18T14:18:36;1.70;;;0.80;;
22829;SDS011;11581;51.250;6.778;2023-09-18T14:21:03;2.25;;;0.80;;
22829;SDS011;11581;51.250;6.778;2023-09-18T14:23:31;4.53;;;1.40;;
22829;SDS011;11581;51.250;6.778;2023-09-18T14:25:59;3.92;;;1.10;;
22829;SDS011;11581;51.250;6.778;2023-09-18T14:28:26;1.05;;;0.73;;
22829;SDS011;11581;51.250;6.778;2023-09-18T14:30:52;2.75;;;0.80;;
22829;SDS011;11581;51.250;6.778;2023-09-18T14:33:20;3.22;;;0.75;;
22829;SDS011;11581;51.250;6.778;2023-09-18T14:35:49;1.88;;;0.70;;
22829;SDS011;11581;51.250;6.778;2023-09-18T14:38:21;4.57;;;0.80;;
22829;SDS011;11581;51.250;6.778;2023-09-18T14:40:47;5.10;;;1.05;;
22829;SDS011;11581;51.250;6.778;2023-09-18T14:43:14;2.00;;;0.80;;
22829;SDS011;11581;51.250;6.778;2023-09-18T14:45:41;1.42;;;0.60;;
22829;SDS011;11581;51.250;6.778;2023-09-18T14:48:08;2.95;;;0.80;;
22829;SDS011;11581;51.250;6.778;2023-09-18T14:50:35;1.58;;;0.73;;
22829;SDS011;11581;51.250;6.778;2023-09-18T14:53:03;5.00;;;2.15;;
22829;SDS011;11581;51.250;6.778;2023-09-18T14:55:32;10.10;;;1.05;;
22829;SDS011;11581;51.250;6.778;2023-09-18T14:58:00;1.52;;;0.57;;